RYR90TC LOWW-EDDK
Flight info
| Callsign | RYR90TC |
|---|---|
| Flight time | 1h 7m |
| Altitude | 36000 |
| Route | BUWUT DCT DITIS DCT RAPET T843 VELIS/N0433F320 DCT MASEK T841 ERNEP ERNEP1C |
| Aircraft | A320/M-SDE3FGHIRWY/LB1 |
Departure
| Time | 2026-04-23 07:03 |
|---|---|
| Airport | Vienna International Airport (LOWW) |
Arrival
| Time | 2026-04-23 08:10 |
|---|---|
| Airport | Cologne Bonn Airport (EDDK) |
| Time | Latitude | Longitude | Altitude | Speed | Heading |
|---|---|---|---|---|---|
| 2026-04-23 06:19 | 48.12053 | 16.55634 | 622 ft | 0 kts | 116° |
| 2026-04-23 06:24 | 48.12053 | 16.55633 | 610 ft | 0 kts | 116° |
| 2026-04-23 06:53 | 48.12059 | 16.55615 | 623 ft | 4 kts | 119° |
| 2026-04-23 06:54 | 48.12074 | 16.55583 | 617 ft | 4 kts | 140° |
| 2026-04-23 06:54 | 48.12095 | 16.55569 | 617 ft | 3 kts | 202° |
| 2026-04-23 06:54 | 48.12098 | 16.55571 | 617 ft | 1 kts | 206° |
| 2026-04-23 06:57 | 48.12072 | 16.55552 | 614 ft | 9 kts | 206° |
| 2026-04-23 06:57 | 48.11991 | 16.55493 | 614 ft | 15 kts | 206° |
| 2026-04-23 06:58 | 48.11902 | 16.55436 | 609 ft | 13 kts | 191° |
| 2026-04-23 06:58 | 48.11818 | 16.55439 | 615 ft | 12 kts | 149° |
| 2026-04-23 06:58 | 48.11766 | 16.55566 | 616 ft | 15 kts | 116° |
| 2026-04-23 06:58 | 48.11718 | 16.55713 | 613 ft | 19 kts | 116° |
| 2026-04-23 06:59 | 48.11657 | 16.55903 | 620 ft | 20 kts | 115° |
| 2026-04-23 06:59 | 48.11598 | 16.56084 | 619 ft | 19 kts | 116° |
| 2026-04-23 06:59 | 48.11543 | 16.56251 | 620 ft | 17 kts | 116° |
| 2026-04-23 06:59 | 48.11492 | 16.56406 | 612 ft | 16 kts | 116° |
| 2026-04-23 07:00 | 48.11445 | 16.56552 | 614 ft | 18 kts | 116° |
| 2026-04-23 07:00 | 48.11386 | 16.56733 | 623 ft | 19 kts | 116° |
| 2026-04-23 07:00 | 48.11331 | 16.56903 | 609 ft | 17 kts | 116° |
| 2026-04-23 07:00 | 48.11280 | 16.57061 | 614 ft | 16 kts | 116° |
| 2026-04-23 07:01 | 48.11230 | 16.57209 | 612 ft | 18 kts | 116° |
| 2026-04-23 07:01 | 48.11178 | 16.57372 | 619 ft | 19 kts | 116° |
| 2026-04-23 07:01 | 48.11116 | 16.57559 | 614 ft | 20 kts | 116° |
| 2026-04-23 07:01 | 48.11033 | 16.57645 | 610 ft | 15 kts | 207° |
| 2026-04-23 07:02 | 48.10973 | 16.57593 | 616 ft | 9 kts | 209° |
| 2026-04-23 07:02 | 48.10926 | 16.57545 | 611 ft | 7 kts | 227° |
| 2026-04-23 07:02 | 48.10933 | 16.57478 | 615 ft | 8 kts | 297° |
| 2026-04-23 07:02 | 48.10984 | 16.57319 | 617 ft | 44 kts | 295° |
| 2026-04-23 07:03 | 48.11220 | 16.56593 | 618 ft | 109 kts | 295° |
| 2026-04-23 07:03 | 48.11629 | 16.55334 | 637 ft | 156 kts | 295° |
| 2026-04-23 07:03 | 48.12105 | 16.53827 | 1168 ft | 165 kts | 295° |
| 2026-04-23 07:03 | 48.12174 | 16.52082 | 1880 ft | 181 kts | 266° |
| 2026-04-23 07:04 | 48.11929 | 16.50103 | 2239 ft | 208 kts | 266° |
| 2026-04-23 07:04 | 48.11671 | 16.47862 | 2803 ft | 229 kts | 271° |
| 2026-04-23 07:04 | 48.11753 | 16.45454 | 3466 ft | 236 kts | 283° |
| 2026-04-23 07:04 | 48.11991 | 16.42993 | 4368 ft | 241 kts | 284° |
| 2026-04-23 07:05 | 48.12260 | 16.40491 | 5248 ft | 245 kts | 284° |
| 2026-04-23 07:05 | 48.12539 | 16.37948 | 6164 ft | 250 kts | 285° |
| 2026-04-23 07:05 | 48.12821 | 16.35347 | 7017 ft | 256 kts | 285° |
| 2026-04-23 07:05 | 48.13107 | 16.32681 | 7822 ft | 262 kts | 285° |
| 2026-04-23 07:06 | 48.13394 | 16.29987 | 8622 ft | 269 kts | 285° |
| 2026-04-23 07:06 | 48.13690 | 16.27192 | 9417 ft | 275 kts | 285° |
| 2026-04-23 07:06 | 48.14197 | 16.24446 | 10199 ft | 273 kts | 303° |
| 2026-04-23 07:06 | 48.15357 | 16.22148 | 10551 ft | 286 kts | 322° |
| 2026-04-23 07:07 | 48.16889 | 16.20073 | 10844 ft | 306 kts | 322° |
| 2026-04-23 07:07 | 48.18495 | 16.17905 | 11471 ft | 315 kts | 322° |
| 2026-04-23 07:07 | 48.20128 | 16.15681 | 12238 ft | 320 kts | 322° |
| 2026-04-23 07:07 | 48.21779 | 16.13417 | 13006 ft | 324 kts | 322° |
| 2026-04-23 07:08 | 48.23416 | 16.11166 | 13752 ft | 328 kts | 322° |
| 2026-04-23 07:08 | 48.25095 | 16.08853 | 14456 ft | 332 kts | 322° |
| 2026-04-23 07:08 | 48.26827 | 16.06460 | 15097 ft | 337 kts | 322° |
| 2026-04-23 07:08 | 48.28561 | 16.04063 | 15729 ft | 342 kts | 322° |
| 2026-04-23 07:09 | 48.30321 | 16.01631 | 16351 ft | 347 kts | 322° |
| 2026-04-23 07:09 | 48.32114 | 15.99154 | 16960 ft | 352 kts | 322° |
| 2026-04-23 07:09 | 48.33921 | 15.96655 | 17581 ft | 356 kts | 322° |
| 2026-04-23 07:09 | 48.35736 | 15.94142 | 18182 ft | 361 kts | 322° |
| 2026-04-23 07:10 | 48.37597 | 15.91565 | 18749 ft | 366 kts | 322° |
| 2026-04-23 07:10 | 48.39452 | 15.88996 | 19289 ft | 369 kts | 322° |
| 2026-04-23 07:10 | 48.41372 | 15.86330 | 19850 ft | 373 kts | 322° |
| 2026-04-23 07:10 | 48.43278 | 15.83677 | 20400 ft | 376 kts | 322° |
| 2026-04-23 07:11 | 48.45216 | 15.80975 | 20974 ft | 380 kts | 322° |
| 2026-04-23 07:11 | 48.47155 | 15.78270 | 21512 ft | 383 kts | 322° |
| 2026-04-23 07:11 | 48.49124 | 15.75523 | 22061 ft | 387 kts | 322° |
| 2026-04-23 07:12 | 48.53071 | 15.70013 | 23113 ft | 394 kts | 322° |
| 2026-04-23 07:12 | 48.55102 | 15.67168 | 23628 ft | 397 kts | 322° |
| 2026-04-23 07:12 | 48.57133 | 15.64321 | 24078 ft | 401 kts | 322° |
| 2026-04-23 07:12 | 48.59187 | 15.61442 | 24507 ft | 404 kts | 322° |
| 2026-04-23 07:13 | 48.61249 | 15.58546 | 24932 ft | 406 kts | 322° |
| 2026-04-23 07:13 | 48.63327 | 15.55624 | 25343 ft | 409 kts | 322° |
| 2026-04-23 07:13 | 48.65398 | 15.52706 | 25732 ft | 411 kts | 322° |
| 2026-04-23 07:13 | 48.67513 | 15.49725 | 26126 ft | 414 kts | 322° |
| 2026-04-23 07:14 | 48.69629 | 15.46739 | 26508 ft | 416 kts | 322° |
| 2026-04-23 07:14 | 48.71721 | 15.43785 | 26880 ft | 419 kts | 322° |
| 2026-04-23 07:14 | 48.73860 | 15.40764 | 27248 ft | 421 kts | 322° |
| 2026-04-23 07:14 | 48.76005 | 15.37729 | 27613 ft | 424 kts | 322° |
| 2026-04-23 07:15 | 48.78168 | 15.34665 | 27961 ft | 426 kts | 322° |
| 2026-04-23 07:15 | 48.80301 | 15.31502 | 28306 ft | 433 kts | 317° |
| 2026-04-23 07:15 | 48.82151 | 15.27896 | 28634 ft | 440 kts | 311° |
| 2026-04-23 07:15 | 48.83955 | 15.24078 | 28973 ft | 443 kts | 311° |
| 2026-04-23 07:16 | 48.85723 | 15.20317 | 29288 ft | 446 kts | 311° |
| 2026-04-23 07:16 | 48.87534 | 15.16461 | 29603 ft | 448 kts | 311° |
| 2026-04-23 07:16 | 48.89349 | 15.12603 | 29902 ft | 451 kts | 311° |
| 2026-04-23 07:16 | 48.91171 | 15.08761 | 30182 ft | 453 kts | 312° |
| 2026-04-23 07:17 | 48.93053 | 15.04876 | 30459 ft | 455 kts | 313° |
| 2026-04-23 07:17 | 48.94951 | 15.01012 | 30696 ft | 456 kts | 313° |
| 2026-04-23 07:17 | 48.96866 | 14.97134 | 30932 ft | 458 kts | 313° |
| 2026-04-23 07:17 | 48.98747 | 14.93324 | 31145 ft | 460 kts | 313° |
| 2026-04-23 07:18 | 49.00681 | 14.89383 | 31369 ft | 462 kts | 313° |
| 2026-04-23 07:18 | 49.02590 | 14.85462 | 31675 ft | 461 kts | 312° |
| 2026-04-23 07:18 | 49.04493 | 14.81532 | 31984 ft | 461 kts | 312° |
| 2026-04-23 07:18 | 49.06388 | 14.77605 | 32282 ft | 460 kts | 312° |
| 2026-04-23 07:19 | 49.08287 | 14.73662 | 32580 ft | 460 kts | 312° |
| 2026-04-23 07:19 | 49.10155 | 14.69788 | 32876 ft | 460 kts | 312° |
| 2026-04-23 07:19 | 49.12076 | 14.65796 | 33192 ft | 460 kts | 312° |
| 2026-04-23 07:19 | 49.13949 | 14.61902 | 33486 ft | 459 kts | 312° |
| 2026-04-23 07:20 | 49.15841 | 14.57967 | 33790 ft | 459 kts | 313° |
| 2026-04-23 07:20 | 49.17716 | 14.54072 | 34088 ft | 459 kts | 313° |
| 2026-04-23 07:20 | 49.19579 | 14.50197 | 34381 ft | 458 kts | 313° |
| 2026-04-23 07:20 | 49.21493 | 14.46200 | 34646 ft | 458 kts | 312° |
| 2026-04-23 07:21 | 49.23372 | 14.42259 | 34890 ft | 458 kts | 312° |
| 2026-04-23 07:21 | 49.25235 | 14.38346 | 35144 ft | 458 kts | 312° |
| 2026-04-23 07:21 | 49.27121 | 14.34381 | 35372 ft | 458 kts | 312° |
| 2026-04-23 07:21 | 49.28994 | 14.30431 | 35607 ft | 458 kts | 312° |
| 2026-04-23 07:22 | 49.30873 | 14.26471 | 35833 ft | 458 kts | 311° |
| 2026-04-23 07:22 | 49.32717 | 14.22587 | 36042 ft | 458 kts | 311° |
| 2026-04-23 07:22 | 49.34595 | 14.18627 | 36235 ft | 459 kts | 311° |
| 2026-04-23 07:23 | 49.38332 | 14.10721 | 36299 ft | 457 kts | 311° |
| 2026-04-23 07:23 | 49.42063 | 14.02796 | 36295 ft | 457 kts | 311° |
| 2026-04-23 07:24 | 49.45752 | 13.94948 | 36302 ft | 457 kts | 311° |
| 2026-04-23 07:24 | 49.49436 | 13.87084 | 36304 ft | 457 kts | 311° |
| 2026-04-23 07:25 | 49.53168 | 13.79092 | 36304 ft | 458 kts | 311° |
| 2026-04-23 07:25 | 49.56889 | 13.71098 | 36308 ft | 458 kts | 311° |
| 2026-04-23 07:26 | 49.60590 | 13.63123 | 36321 ft | 458 kts | 311° |
| 2026-04-23 07:26 | 49.64267 | 13.55179 | 36320 ft | 459 kts | 311° |
| 2026-04-23 07:27 | 49.67985 | 13.47121 | 36321 ft | 459 kts | 310° |
| 2026-04-23 07:27 | 49.71663 | 13.39137 | 36318 ft | 459 kts | 310° |
| 2026-04-23 07:28 | 49.75383 | 13.31028 | 36324 ft | 460 kts | 310° |
| 2026-04-23 07:28 | 49.79043 | 13.23012 | 36315 ft | 460 kts | 310° |
| 2026-04-23 07:29 | 49.82735 | 13.14904 | 36311 ft | 461 kts | 310° |
| 2026-04-23 07:29 | 49.86436 | 13.06754 | 36309 ft | 461 kts | 310° |
| 2026-04-23 07:30 | 49.90125 | 12.98616 | 36302 ft | 462 kts | 310° |
| 2026-04-23 07:30 | 49.93786 | 12.90521 | 36299 ft | 462 kts | 310° |
| 2026-04-23 07:31 | 49.97464 | 12.82358 | 36297 ft | 462 kts | 310° |
| 2026-04-23 07:31 | 50.01156 | 12.74127 | 36296 ft | 463 kts | 310° |
| 2026-04-23 07:32 | 50.04822 | 12.65928 | 36301 ft | 463 kts | 309° |
| 2026-04-23 07:32 | 50.08474 | 12.57734 | 36304 ft | 463 kts | 309° |
| 2026-04-23 07:33 | 50.12134 | 12.49495 | 36312 ft | 464 kts | 309° |
| 2026-04-23 07:33 | 50.15784 | 12.41262 | 36316 ft | 464 kts | 309° |
| 2026-04-23 07:34 | 50.19048 | 12.32530 | 36331 ft | 472 kts | 295° |
| 2026-04-23 07:34 | 50.20827 | 12.22609 | 36334 ft | 476 kts | 287° |
| 2026-04-23 07:35 | 50.22401 | 12.12587 | 36340 ft | 476 kts | 287° |
| 2026-04-23 07:35 | 50.23987 | 12.02520 | 36344 ft | 477 kts | 287° |
| 2026-04-23 07:36 | 50.25562 | 11.92446 | 36346 ft | 477 kts | 287° |
| 2026-04-23 07:36 | 50.27113 | 11.82457 | 36346 ft | 478 kts | 286° |
| 2026-04-23 07:37 | 50.28672 | 11.72335 | 36350 ft | 478 kts | 286° |
| 2026-04-23 07:37 | 50.30217 | 11.62217 | 36349 ft | 478 kts | 286° |
| 2026-04-23 07:38 | 50.31750 | 11.52108 | 36345 ft | 478 kts | 285° |
| 2026-04-23 07:38 | 50.33241 | 11.42029 | 36346 ft | 479 kts | 285° |
| 2026-04-23 07:39 | 50.34731 | 11.31878 | 36340 ft | 479 kts | 285° |
| 2026-04-23 07:39 | 50.36220 | 11.21710 | 36339 ft | 479 kts | 285° |
| 2026-04-23 07:40 | 50.37698 | 11.11599 | 36344 ft | 479 kts | 285° |
| 2026-04-23 07:40 | 50.39177 | 11.01423 | 36344 ft | 479 kts | 285° |
| 2026-04-23 07:41 | 50.40649 | 10.91232 | 36348 ft | 480 kts | 285° |
| 2026-04-23 07:41 | 50.42106 | 10.81030 | 36350 ft | 480 kts | 284° |
| 2026-04-23 07:42 | 50.43555 | 10.70802 | 36357 ft | 480 kts | 284° |
| 2026-04-23 07:42 | 50.45010 | 10.60648 | 36360 ft | 480 kts | 285° |
| 2026-04-23 07:43 | 50.46501 | 10.50431 | 36362 ft | 480 kts | 287° |
| 2026-04-23 07:43 | 50.48948 | 10.40780 | 36358 ft | 476 kts | 298° |
| 2026-04-23 07:44 | 50.51785 | 10.31384 | 36360 ft | 476 kts | 298° |
| 2026-04-23 07:44 | 50.54590 | 10.21953 | 36362 ft | 477 kts | 298° |
| 2026-04-23 07:45 | 50.57384 | 10.12578 | 36364 ft | 477 kts | 298° |
| 2026-04-23 07:45 | 50.60205 | 10.03131 | 36365 ft | 477 kts | 297° |
| 2026-04-23 07:46 | 50.63009 | 9.93655 | 36369 ft | 477 kts | 297° |
| 2026-04-23 07:46 | 50.65797 | 9.84154 | 36030 ft | 478 kts | 297° |
| 2026-04-23 07:46 | 50.67174 | 9.79467 | 35782 ft | 478 kts | 297° |
| 2026-04-23 07:47 | 50.68573 | 9.74715 | 35534 ft | 478 kts | 297° |
| 2026-04-23 07:47 | 50.69970 | 9.69947 | 35291 ft | 479 kts | 297° |
| 2026-04-23 07:47 | 50.71364 | 9.65174 | 35042 ft | 479 kts | 297° |
| 2026-04-23 07:47 | 50.72755 | 9.60396 | 34803 ft | 480 kts | 297° |
| 2026-04-23 07:48 | 50.74179 | 9.55627 | 34568 ft | 480 kts | 298° |
| 2026-04-23 07:48 | 50.75661 | 9.50906 | 34268 ft | 480 kts | 299° |
| 2026-04-23 07:48 | 50.77187 | 9.46195 | 33284 ft | 483 kts | 300° |
| 2026-04-23 07:48 | 50.78724 | 9.41513 | 32792 ft | 476 kts | 300° |
| 2026-04-23 07:49 | 50.80202 | 9.36986 | 32196 ft | 472 kts | 300° |
| 2026-04-23 07:49 | 50.81705 | 9.32334 | 31621 ft | 469 kts | 300° |
| 2026-04-23 07:49 | 50.83166 | 9.27749 | 31035 ft | 465 kts | 300° |
| 2026-04-23 07:49 | 50.84604 | 9.23185 | 30454 ft | 462 kts | 299° |
| 2026-04-23 07:50 | 50.86026 | 9.18636 | 29830 ft | 458 kts | 299° |
| 2026-04-23 07:50 | 50.87429 | 9.14146 | 29274 ft | 453 kts | 299° |
| 2026-04-23 07:50 | 50.88822 | 9.09694 | 28719 ft | 448 kts | 299° |
| 2026-04-23 07:50 | 50.90199 | 9.05294 | 28166 ft | 444 kts | 299° |
| 2026-04-23 07:51 | 50.91546 | 9.00984 | 27630 ft | 440 kts | 299° |
| 2026-04-23 07:51 | 50.92895 | 8.96671 | 27098 ft | 435 kts | 299° |
| 2026-04-23 07:51 | 50.94235 | 8.92393 | 26573 ft | 431 kts | 298° |
| 2026-04-23 07:51 | 50.95572 | 8.88161 | 26055 ft | 427 kts | 299° |
| 2026-04-23 07:52 | 50.96913 | 8.83974 | 25544 ft | 423 kts | 299° |
| 2026-04-23 07:52 | 50.98247 | 8.79837 | 25052 ft | 420 kts | 299° |
| 2026-04-23 07:52 | 50.99572 | 8.75726 | 24553 ft | 416 kts | 297° |
| 2026-04-23 07:52 | 51.00592 | 8.71444 | 24071 ft | 415 kts | 286° |
| 2026-04-23 07:53 | 51.01060 | 8.67002 | 23531 ft | 413 kts | 274° |
| 2026-04-23 07:53 | 51.00972 | 8.62473 | 23048 ft | 410 kts | 263° |
| 2026-04-23 07:53 | 51.00496 | 8.58031 | 22569 ft | 406 kts | 261° |
| 2026-04-23 07:53 | 51.00017 | 8.53707 | 22088 ft | 403 kts | 261° |
| 2026-04-23 07:54 | 50.99527 | 8.49277 | 21598 ft | 399 kts | 261° |
| 2026-04-23 07:54 | 50.99047 | 8.44941 | 21098 ft | 397 kts | 261° |
| 2026-04-23 07:54 | 50.98571 | 8.40644 | 20593 ft | 395 kts | 261° |
| 2026-04-23 07:54 | 50.98092 | 8.36365 | 20098 ft | 393 kts | 261° |
| 2026-04-23 07:55 | 50.97618 | 8.32164 | 19603 ft | 391 kts | 261° |
| 2026-04-23 07:55 | 50.97243 | 8.27908 | 19098 ft | 388 kts | 268° |
| 2026-04-23 07:55 | 50.97310 | 8.23653 | 18601 ft | 385 kts | 275° |
| 2026-04-23 07:55 | 50.97479 | 8.19422 | 18076 ft | 383 kts | 275° |
| 2026-04-23 07:56 | 50.97644 | 8.15224 | 17591 ft | 379 kts | 275° |
| 2026-04-23 07:56 | 50.97804 | 8.11078 | 17117 ft | 375 kts | 275° |
| 2026-04-23 07:56 | 50.97963 | 8.06961 | 16645 ft | 372 kts | 275° |
| 2026-04-23 07:56 | 50.98120 | 8.02873 | 16183 ft | 369 kts | 275° |
| 2026-04-23 07:57 | 50.98274 | 7.98823 | 15721 ft | 366 kts | 275° |
| 2026-04-23 07:57 | 50.98424 | 7.94869 | 15272 ft | 364 kts | 275° |
| 2026-04-23 07:57 | 50.98573 | 7.90866 | 14810 ft | 361 kts | 275° |
| 2026-04-23 07:57 | 50.98720 | 7.86906 | 14358 ft | 359 kts | 275° |
| 2026-04-23 07:58 | 50.98863 | 7.82964 | 13865 ft | 356 kts | 275° |
| 2026-04-23 07:58 | 50.98833 | 7.79080 | 13326 ft | 356 kts | 262° |
| 2026-04-23 07:58 | 50.98074 | 7.75331 | 12774 ft | 351 kts | 243° |
| 2026-04-23 07:58 | 50.96712 | 7.72214 | 12239 ft | 338 kts | 232° |
| 2026-04-23 07:59 | 50.95278 | 7.69320 | 11718 ft | 328 kts | 232° |
| 2026-04-23 07:59 | 50.93904 | 7.66578 | 11236 ft | 316 kts | 232° |
| 2026-04-23 07:59 | 50.92554 | 7.63896 | 10750 ft | 307 kts | 232° |
| 2026-04-23 07:59 | 50.91244 | 7.61287 | 10265 ft | 298 kts | 232° |
| 2026-04-23 08:00 | 50.89968 | 7.58748 | 9738 ft | 291 kts | 232° |
| 2026-04-23 08:00 | 50.88723 | 7.56273 | 9213 ft | 284 kts | 232° |
| 2026-04-23 08:00 | 50.87507 | 7.53853 | 8695 ft | 278 kts | 232° |
| 2026-04-23 08:00 | 50.86309 | 7.51498 | 8190 ft | 272 kts | 228° |
| 2026-04-23 08:01 | 50.84912 | 7.49595 | 7712 ft | 267 kts | 212° |
| 2026-04-23 08:01 | 50.83247 | 7.48356 | 7272 ft | 265 kts | 196° |
| 2026-04-23 08:01 | 50.81422 | 7.47864 | 6841 ft | 268 kts | 182° |
| 2026-04-23 08:01 | 50.79614 | 7.47865 | 6576 ft | 262 kts | 168° |
| 2026-04-23 08:02 | 50.77951 | 7.48983 | 6316 ft | 255 kts | 142° |
| 2026-04-23 08:02 | 50.76578 | 7.50738 | 6065 ft | 254 kts | 136° |
| 2026-04-23 08:02 | 50.75264 | 7.52586 | 5816 ft | 252 kts | 136° |
| 2026-04-23 08:02 | 50.73789 | 7.54062 | 5583 ft | 252 kts | 159° |
| 2026-04-23 08:03 | 50.72079 | 7.54432 | 5348 ft | 248 kts | 185° |
| 2026-04-23 08:03 | 50.70470 | 7.53643 | 5120 ft | 246 kts | 211° |
| 2026-04-23 08:03 | 50.69188 | 7.51884 | 4880 ft | 245 kts | 229° |
| 2026-04-23 08:03 | 50.68055 | 7.49893 | 4615 ft | 243 kts | 229° |
| 2026-04-23 08:04 | 50.67043 | 7.47784 | 4342 ft | 240 kts | 248° |
| 2026-04-23 08:04 | 50.66771 | 7.45258 | 4104 ft | 232 kts | 280° |
| 2026-04-23 08:04 | 50.67321 | 7.42922 | 4015 ft | 227 kts | 309° |
| 2026-04-23 08:04 | 50.68407 | 7.41163 | 4021 ft | 218 kts | 320° |
| 2026-04-23 08:05 | 50.69514 | 7.39594 | 4030 ft | 210 kts | 321° |
| 2026-04-23 08:05 | 50.70595 | 7.38054 | 4039 ft | 208 kts | 320° |
| 2026-04-23 08:05 | 50.71652 | 7.36541 | 3980 ft | 207 kts | 320° |
| 2026-04-23 08:05 | 50.72711 | 7.35021 | 3763 ft | 205 kts | 320° |
| 2026-04-23 08:06 | 50.73758 | 7.33519 | 3504 ft | 203 kts | 320° |
| 2026-04-23 08:06 | 50.74802 | 7.32019 | 3220 ft | 201 kts | 319° |
| 2026-04-23 08:06 | 50.75815 | 7.30564 | 2969 ft | 194 kts | 320° |
| 2026-04-23 08:06 | 50.76795 | 7.29154 | 2720 ft | 187 kts | 320° |
| 2026-04-23 08:07 | 50.77747 | 7.27783 | 2449 ft | 183 kts | 320° |
| 2026-04-23 08:07 | 50.78651 | 7.26482 | 2204 ft | 174 kts | 320° |
| 2026-04-23 08:07 | 50.79519 | 7.25230 | 1959 ft | 164 kts | 319° |
| 2026-04-23 08:07 | 50.80323 | 7.24071 | 1745 ft | 149 kts | 319° |
| 2026-04-23 08:08 | 50.81066 | 7.23000 | 1575 ft | 140 kts | 319° |
| 2026-04-23 08:08 | 50.81773 | 7.21981 | 1362 ft | 136 kts | 319° |
| 2026-04-23 08:08 | 50.82467 | 7.20979 | 1176 ft | 135 kts | 319° |
| 2026-04-23 08:08 | 50.83158 | 7.19981 | 978 ft | 134 kts | 318° |
| 2026-04-23 08:09 | 50.83845 | 7.18990 | 797 ft | 134 kts | 318° |
| 2026-04-23 08:09 | 50.84525 | 7.18012 | 627 ft | 133 kts | 319° |
| 2026-04-23 08:09 | 50.85205 | 7.17026 | 436 ft | 133 kts | 318° |
| 2026-04-23 08:09 | 50.85883 | 7.16046 | 309 ft | 125 kts | 318° |
| 2026-04-23 08:10 | 50.86439 | 7.15240 | 282 ft | 86 kts | 317° |
| 2026-04-23 08:10 | 50.86784 | 7.14741 | 267 ft | 58 kts | 318° |
| 2026-04-23 08:10 | 50.87283 | 7.13956 | 242 ft | 36 kts | 292° |
| 2026-04-23 08:11 | 50.87322 | 7.13679 | 237 ft | 24 kts | 279° |
| 2026-04-23 08:11 | 50.87379 | 7.13418 | 232 ft | 27 kts | 312° |
| 2026-04-23 08:11 | 50.87493 | 7.13255 | 233 ft | 22 kts | 317° |
| 2026-04-23 08:11 | 50.87614 | 7.13083 | 233 ft | 24 kts | 319° |
| 2026-04-23 08:12 | 50.87725 | 7.12916 | 233 ft | 22 kts | 317° |
| 2026-04-23 08:12 | 50.87786 | 7.12743 | 232 ft | 19 kts | 255° |
| 2026-04-23 08:12 | 50.87759 | 7.12584 | 233 ft | 14 kts | 248° |
| 2026-04-23 08:12 | 50.87720 | 7.12526 | 232 ft | 4 kts | 205° |
| 2026-04-23 08:13 | 50.87711 | 7.12504 | 232 ft | 2 kts | 266° |
| 2026-04-23 08:13 | 50.87715 | 7.12480 | 232 ft | 2 kts | 285° |
| 2026-04-23 08:13 | 50.87722 | 7.12444 | 233 ft | 4 kts | 288° |
| 2026-04-23 08:13 | 50.87731 | 7.12403 | 232 ft | 3 kts | 288° |
| 2026-04-23 08:14 | 50.87734 | 7.12389 | 234 ft | 1 kts | 288° |
| 2026-04-23 08:14 | 50.87734 | 7.12387 | 234 ft | 0 kts | 288° |